createdAt,value
2018-06-08T00:01:44.075Z,20.50
2018-06-08T00:05:08.900Z,20.28
2018-06-08T00:08:33.622Z,20.05
2018-06-08T00:11:58.418Z,19.98
2018-06-08T00:15:23.362Z,19.96
2018-06-08T00:18:48.229Z,19.79
2018-06-08T00:22:18.430Z,19.98
2018-06-08T00:25:42.934Z,19.68
2018-06-08T00:29:07.927Z,19.91
2018-06-08T00:32:32.823Z,19.85
2018-06-08T00:35:57.712Z,19.88
2018-06-08T00:39:22.756Z,19.57
2018-06-08T00:42:47.783Z,19.37
2018-06-08T00:46:12.852Z,19.34
2018-06-08T00:49:38.707Z,19.26
2018-06-08T00:53:04.811Z,19.15
2018-06-08T00:56:46.518Z,19.12
2018-06-08T01:00:11.811Z,19.02
2018-06-08T01:03:37.618Z,19.06
2018-06-08T01:07:02.666Z,18.95
2018-06-08T01:10:27.641Z,18.84
2018-06-08T01:13:52.764Z,18.88
2018-06-08T01:17:17.638Z,18.88
2018-06-08T01:20:42.542Z,18.77
2018-06-08T01:24:07.560Z,18.90
2018-06-08T01:27:32.348Z,19.11
2018-06-08T01:30:57.252Z,18.97
2018-06-08T01:34:21.845Z,18.72
2018-06-08T01:37:46.429Z,18.75
2018-06-08T01:41:11.290Z,18.75
2018-06-08T01:44:36.196Z,18.74
2018-06-08T01:48:01.290Z,18.88
2018-06-08T01:51:26.380Z,19.01
2018-06-08T01:54:51.358Z,18.92
2018-06-08T01:58:16.283Z,18.77
2018-06-08T02:01:41.288Z,19.13
2018-06-08T02:05:06.399Z,19.35
2018-06-08T02:08:31.348Z,19.72
2018-06-08T02:11:56.128Z,19.74
2018-06-08T02:15:20.875Z,19.20
2018-06-08T02:18:45.802Z,19.06
2018-06-08T02:22:10.598Z,19.05
2018-06-08T02:25:35.367Z,19.05
2018-06-08T02:29:00.111Z,18.89
2018-06-08T02:32:24.979Z,18.83
2018-06-08T02:35:50.073Z,18.89
2018-06-08T02:39:14.784Z,18.90
2018-06-08T02:42:39.708Z,18.85
2018-06-08T02:46:05.868Z,18.84
2018-06-08T02:49:30.801Z,18.75
2018-06-08T02:52:55.842Z,18.87
2018-06-08T02:56:20.842Z,18.68
2018-06-08T02:59:45.429Z,18.61
2018-06-08T03:03:10.347Z,18.76
2018-06-08T03:06:35.387Z,18.74
2018-06-08T03:10:00.447Z,18.57
2018-06-08T03:13:27.129Z,18.57
2018-06-08T03:16:52.155Z,18.66
2018-06-08T03:20:16.932Z,18.86
2018-06-08T03:23:41.925Z,18.90
2018-06-08T03:27:06.707Z,18.83
2018-06-08T03:30:31.618Z,18.85
2018-06-08T03:33:56.607Z,18.87
2018-06-08T03:37:23.451Z,18.86
2018-06-08T03:40:48.315Z,19.06
2018-06-08T03:44:13.171Z,18.85
2018-06-08T03:47:38.089Z,18.90
2018-06-08T03:51:02.945Z,18.91
2018-06-08T03:54:28.539Z,19.11
2018-06-08T03:57:53.581Z,18.93
2018-06-08T04:01:18.583Z,19.03
2018-06-08T04:04:43.565Z,18.99
2018-06-08T04:08:08.511Z,18.95
2018-06-08T04:11:33.397Z,18.78
2018-06-08T04:14:58.334Z,18.83
2018-06-08T04:18:23.186Z,18.95
2018-06-08T04:21:47.954Z,19.03
2018-06-08T04:25:12.955Z,18.88
2018-06-08T04:28:37.865Z,19.15
2018-06-08T04:35:26.738Z,18.97
2018-06-08T04:38:51.916Z,19.16
2018-06-08T04:42:16.894Z,19.03
2018-06-08T04:45:42.082Z,19.10
2018-06-08T04:49:06.719Z,19.20
2018-06-08T04:52:31.417Z,19.18
2018-06-08T04:55:56.476Z,19.30
2018-06-08T04:59:21.923Z,19.70
2018-06-08T05:02:46.673Z,19.33
2018-06-08T05:06:11.817Z,19.37
2018-06-08T05:09:36.896Z,19.22
2018-06-08T05:13:01.955Z,19.23
2018-06-08T05:16:26.867Z,19.21
2018-06-08T05:19:51.742Z,19.48
2018-06-08T05:23:17.380Z,19.35
2018-06-08T05:26:42.333Z,19.62
2018-06-08T05:30:13.749Z,19.70
2018-06-08T05:33:38.770Z,19.47
2018-06-08T05:37:03.549Z,19.70
2018-06-08T05:40:28.384Z,19.51
2018-06-08T05:43:53.300Z,19.42
2018-06-08T05:47:18.318Z,19.62
2018-06-08T05:50:43.340Z,19.50
2018-06-08T05:54:08.438Z,19.47
2018-06-08T05:57:33.377Z,19.92
2018-06-08T06:00:58.397Z,20.16
2018-06-08T06:04:23.391Z,20.08
2018-06-08T06:07:49.021Z,20.10
2018-06-08T06:11:14.005Z,20.33
2018-06-08T06:14:39.237Z,20.57
2018-06-08T06:18:05.514Z,20.46
2018-06-08T06:21:30.584Z,20.31
2018-06-08T06:24:55.595Z,20.47
2018-06-08T06:28:20.611Z,20.40
2018-06-08T06:31:45.702Z,20.54
2018-06-08T06:35:10.681Z,20.41
2018-06-08T06:38:35.750Z,20.21
2018-06-08T06:42:00.695Z,20.28
2018-06-08T06:45:25.652Z,20.10
2018-06-08T06:48:50.570Z,20.39
2018-06-08T06:52:15.677Z,20.52
2018-06-08T06:55:40.618Z,20.58
2018-06-08T06:59:06.960Z,21.11
2018-06-08T07:02:32.951Z,21.12
2018-06-08T07:05:58.005Z,20.98
2018-06-08T07:09:24.129Z,20.96
2018-06-08T07:12:49.146Z,21.31
2018-06-08T07:16:13.599Z,21.07
2018-06-08T07:19:38.684Z,21.06
2018-06-08T07:23:04.184Z,21.00
2018-06-08T07:26:30.962Z,20.93
2018-06-08T07:29:56.195Z,21.16
2018-06-08T07:33:21.171Z,21.26
2018-06-08T07:36:47.149Z,21.09
2018-06-08T07:40:12.391Z,21.40
2018-06-08T07:43:37.203Z,21.19
2018-06-08T07:47:01.640Z,21.36
2018-06-08T07:50:26.509Z,21.51
2018-06-08T07:53:51.413Z,21.38
2018-06-08T07:57:16.331Z,21.76
2018-06-08T08:00:41.179Z,21.68
2018-06-08T08:04:06.069Z,21.99
2018-06-08T08:07:32.284Z,22.29
2018-06-08T08:10:57.110Z,22.60
2018-06-08T08:14:22.092Z,22.26
2018-06-08T08:17:46.998Z,22.68
2018-06-08T08:21:11.835Z,22.39
2018-06-08T08:24:36.708Z,22.44
2018-06-08T08:28:01.255Z,22.63
2018-06-08T08:31:26.316Z,22.87
2018-06-08T08:34:51.060Z,22.96
2018-06-08T08:38:15.958Z,22.89
2018-06-08T08:41:40.720Z,22.93
2018-06-08T08:45:05.381Z,22.83
2018-06-08T08:48:30.200Z,23.07
2018-06-08T08:51:55.453Z,23.30
2018-06-08T08:55:22.411Z,22.73
2018-06-08T08:58:47.729Z,23.22
2018-06-08T09:02:13.600Z,23.30
2018-06-08T09:05:39.767Z,23.99
2018-06-08T09:09:06.090Z,24.55
2018-06-08T09:12:31.009Z,23.86
2018-06-08T09:15:56.203Z,24.13
2018-06-08T09:19:21.523Z,24.04
2018-06-08T09:22:46.518Z,24.09
2018-06-08T09:26:11.600Z,24.78
2018-06-08T09:29:37.996Z,24.46
2018-06-08T09:33:02.807Z,24.18
2018-06-08T09:36:27.987Z,24.38
2018-06-08T09:39:52.872Z,24.46
2018-06-08T09:43:17.910Z,24.30
2018-06-08T09:46:42.977Z,25.03
2018-06-08T09:50:07.869Z,24.35
2018-06-08T09:53:32.987Z,24.88
2018-06-08T09:56:58.868Z,25.22
2018-06-08T10:00:29.243Z,25.07
2018-06-08T10:03:54.511Z,25.67
2018-06-08T10:07:24.337Z,25.43
2018-06-08T10:10:54.853Z,25.77
2018-06-08T10:14:20.951Z,25.47
2018-06-08T10:17:47.781Z,24.80
2018-06-08T10:21:13.701Z,25.20
2018-06-08T10:24:40.489Z,26.07
2018-06-08T10:28:06.482Z,25.79
2018-06-08T10:31:33.151Z,26.35
2018-06-08T10:34:59.837Z,26.65
2018-06-08T10:38:25.055Z,26.74
2018-06-08T10:41:50.272Z,26.69
2018-06-08T10:45:15.702Z,26.90
2018-06-08T10:48:40.533Z,26.74
2018-06-08T10:52:05.031Z,26.15
2018-06-08T10:55:29.991Z,26.34
2018-06-08T10:58:54.968Z,26.14
2018-06-08T11:02:21.036Z,26.28
2018-06-08T11:05:45.974Z,26.11
2018-06-08T11:09:11.181Z,26.47
2018-06-08T11:12:36.962Z,26.70
2018-06-08T11:16:02.090Z,27.05
2018-06-08T11:19:29.271Z,26.93
2018-06-08T11:22:54.924Z,26.61
2018-06-08T11:26:20.070Z,25.70
2018-06-08T11:29:46.622Z,25.97
2018-06-08T11:33:11.419Z,26.40
2018-06-08T11:36:36.263Z,27.09
2018-06-08T11:40:01.645Z,27.64
2018-06-08T11:43:27.473Z,28.09
2018-06-08T11:46:52.364Z,27.66
2018-06-08T11:50:17.159Z,27.06
2018-06-08T11:53:43.126Z,27.07
2018-06-08T11:57:08.256Z,26.72
2018-06-08T12:00:36.221Z,27.13
2018-06-08T12:04:01.066Z,27.27
2018-06-08T12:07:25.959Z,26.87
2018-06-08T12:10:51.022Z,27.24
2018-06-08T12:14:17.242Z,26.77
2018-06-08T12:17:42.203Z,26.65
2018-06-08T12:21:07.903Z,27.05
2018-06-08T12:24:33.044Z,27.26
2018-06-08T12:27:57.939Z,28.02
2018-06-08T12:31:23.548Z,27.25
2018-06-08T12:34:49.407Z,26.89
2018-06-08T12:38:15.318Z,26.88
2018-06-08T12:41:40.881Z,27.50
2018-06-08T12:45:08.204Z,27.73
2018-06-08T12:48:35.874Z,29.01
2018-06-08T12:52:04.447Z,29.06
2018-06-08T12:55:31.095Z,27.57
2018-06-08T12:58:57.248Z,26.58
2018-06-08T13:02:25.017Z,26.89
2018-06-08T13:05:50.917Z,26.77
2018-06-08T13:09:17.972Z,26.61
2018-06-08T13:12:43.738Z,26.91
2018-06-08T13:16:10.068Z,26.50
2018-06-08T13:19:37.663Z,26.83
2018-06-08T13:23:03.525Z,26.51
2018-06-08T13:26:30.513Z,26.77
2018-06-08T13:29:56.099Z,26.33
2018-06-08T13:33:21.121Z,26.23
2018-06-08T13:36:46.411Z,25.82
2018-06-08T13:40:13.895Z,25.12
2018-06-08T13:43:39.511Z,24.48
2018-06-08T13:47:06.420Z,25.05
2018-06-08T13:50:31.737Z,24.51
2018-06-08T13:53:56.758Z,24.41
2018-06-08T13:57:21.932Z,24.51
2018-06-08T14:00:48.031Z,24.47
2018-06-08T14:04:13.705Z,24.61
2018-06-08T14:07:38.731Z,24.67
2018-06-08T14:11:04.312Z,24.68
2018-06-08T14:14:30.601Z,24.33
2018-06-08T14:17:55.550Z,24.48
2018-06-08T14:21:20.136Z,24.46
2018-06-08T14:24:46.176Z,24.34
2018-06-08T14:28:14.935Z,23.85
2018-06-08T14:31:40.026Z,23.90
2018-06-08T14:35:05.009Z,23.82
2018-06-08T14:38:30.173Z,23.54
2018-06-08T14:41:55.261Z,22.86
2018-06-08T14:45:20.359Z,22.51
2018-06-08T14:48:45.332Z,22.14
2018-06-08T14:52:10.365Z,22.09
2018-06-08T14:55:35.419Z,20.47
2018-06-08T14:59:00.338Z,20.01
2018-06-08T15:02:25.269Z,20.17
2018-06-08T15:05:50.094Z,20.04
2018-06-08T15:09:15.140Z,20.04
2018-06-08T15:12:39.992Z,20.23
2018-06-08T15:16:05.175Z,20.08
2018-06-08T15:19:30.307Z,20.11
2018-06-08T15:22:55.167Z,20.09
2018-06-08T15:26:20.303Z,19.89
2018-06-08T15:29:45.174Z,19.84
2018-06-08T15:33:09.984Z,19.84
2018-06-08T15:36:35.133Z,19.81
2018-06-08T15:40:00.328Z,19.84
2018-06-08T15:43:25.438Z,19.63
2018-06-08T15:46:50.539Z,19.72
2018-06-08T15:50:15.497Z,19.63
2018-06-08T15:53:40.594Z,19.81
2018-06-08T15:57:05.748Z,20.00
2018-06-08T16:00:30.779Z,20.15
2018-06-08T16:03:55.873Z,20.13
2018-06-08T16:07:21.011Z,20.28
2018-06-08T16:10:46.090Z,20.18
2018-06-08T16:14:21.047Z,20.16
2018-06-08T16:17:45.830Z,20.14
2018-06-08T16:21:10.824Z,20.14
2018-06-08T16:24:35.325Z,20.26
2018-06-08T16:28:01.294Z,20.24
2018-06-08T16:31:26.257Z,20.15
2018-06-08T16:34:51.047Z,20.10
2018-06-08T16:38:15.983Z,20.22
2018-06-08T16:41:40.901Z,20.20
2018-06-08T16:45:05.901Z,20.12
2018-06-08T16:48:30.842Z,19.89
2018-06-08T16:51:58.732Z,19.83
2018-06-08T16:55:24.389Z,19.81
2018-06-08T16:58:49.861Z,20.14
2018-06-08T17:02:15.409Z,20.04
2018-06-08T17:05:41.664Z,19.94
2018-06-08T17:09:08.537Z,19.85
2018-06-08T17:12:35.237Z,19.77
2018-06-08T17:24:00.447Z,19.65
2018-06-08T17:27:25.571Z,19.51
2018-06-08T17:30:50.650Z,19.61
2018-06-08T17:34:16.072Z,19.59
2018-06-08T17:37:43.211Z,19.51
2018-06-08T17:41:08.403Z,19.57
2018-06-08T17:44:34.977Z,19.51
2018-06-08T17:48:01.952Z,19.68
2018-06-08T17:51:27.080Z,19.53
2018-06-08T17:54:54.025Z,19.56
2018-06-08T17:58:19.007Z,19.59
2018-06-08T18:01:44.370Z,19.55
2018-06-08T18:05:09.285Z,19.50
2018-06-08T18:08:34.371Z,19.42
2018-06-08T18:11:59.376Z,19.52
2018-06-08T18:15:24.899Z,19.80
2018-06-08T18:18:50.905Z,19.68
2018-06-08T18:22:15.911Z,19.49
2018-06-08T18:25:41.586Z,19.48
2018-06-08T18:29:07.160Z,19.51
2018-06-08T18:32:33.408Z,19.52
2018-06-08T18:35:59.076Z,19.34
2018-06-08T18:39:24.715Z,19.18
2018-06-08T18:42:51.083Z,19.15
2018-06-08T18:46:17.790Z,18.96
2018-06-08T18:49:44.064Z,18.80
2018-06-08T18:53:09.191Z,18.81
2018-06-08T18:56:34.272Z,19.02
2018-06-08T18:59:59.902Z,19.07
2018-06-08T19:03:25.301Z,19.20
2018-06-08T19:06:52.873Z,19.00
2018-06-08T19:10:18.093Z,19.02
2018-06-08T19:13:43.112Z,19.11
2018-06-08T19:17:07.917Z,18.89
2018-06-08T19:20:33.081Z,18.89
2018-06-08T19:23:58.524Z,18.96
2018-06-08T19:27:23.571Z,19.09
2018-06-08T19:30:48.671Z,19.11
2018-06-08T19:34:14.751Z,19.17
2018-06-08T19:37:39.608Z,19.39
2018-06-08T19:41:04.545Z,19.35
2018-06-08T19:44:30.604Z,19.26
2018-06-08T19:47:55.600Z,19.29
2018-06-08T19:51:20.554Z,19.36
2018-06-08T19:54:45.464Z,19.24
2018-06-08T19:58:11.268Z,19.29
2018-06-08T20:01:37.059Z,19.29
2018-06-08T20:05:02.144Z,19.37
2018-06-08T20:08:27.039Z,19.30
2018-06-08T20:11:52.833Z,19.41
2018-06-08T20:15:19.069Z,19.32
2018-06-08T20:18:44.269Z,19.38
2018-06-08T20:22:09.540Z,19.41
2018-06-08T20:25:37.243Z,19.49
2018-06-08T20:29:02.426Z,19.38
2018-06-08T20:32:27.930Z,19.04
2018-06-08T20:35:53.965Z,19.21
2018-06-08T20:39:19.035Z,19.10
2018-06-08T20:42:44.128Z,19.12
2018-06-08T20:46:09.314Z,19.14
2018-06-08T20:49:34.402Z,19.13
2018-06-08T20:52:59.391Z,19.00
2018-06-08T20:56:25.468Z,18.94
2018-06-08T20:59:50.653Z,19.08
2018-06-08T21:03:15.759Z,18.85
2018-06-08T21:06:40.850Z,18.86
2018-06-08T21:10:06.188Z,18.89
2018-06-08T21:13:31.382Z,18.86
2018-06-08T21:16:56.534Z,18.97
2018-06-08T21:20:21.902Z,19.06
2018-06-08T21:23:46.946Z,19.05
2018-06-08T21:27:11.939Z,19.12
2018-06-08T21:30:36.974Z,18.84
2018-06-08T21:34:02.199Z,18.98
2018-06-08T21:37:27.224Z,19.08
2018-06-08T21:40:52.350Z,19.01
2018-06-08T21:44:17.288Z,18.99
2018-06-08T21:47:42.383Z,19.31
2018-06-08T21:51:07.350Z,19.42
2018-06-08T21:54:32.247Z,19.42
2018-06-08T21:57:58.269Z,19.32
2018-06-08T22:01:23.347Z,19.20
2018-06-08T22:04:48.391Z,19.18
2018-06-08T22:08:13.495Z,19.04
2018-06-08T22:11:39.472Z,18.97
2018-06-08T22:15:05.695Z,18.97
2018-06-08T22:18:37.700Z,18.90
2018-06-08T22:22:02.314Z,18.96
2018-06-08T22:25:27.267Z,19.05
2018-06-08T22:28:52.251Z,18.98
2018-06-08T22:32:17.153Z,19.05
2018-06-08T22:35:41.912Z,19.10
2018-06-08T22:39:08.355Z,19.15
2018-06-08T22:42:33.749Z,19.19
2018-06-08T22:45:58.704Z,19.08
2018-06-08T22:49:23.663Z,19.04
2018-06-08T22:52:48.725Z,19.20
2018-06-08T22:56:13.675Z,19.46
2018-06-08T22:59:38.617Z,19.63
2018-06-08T23:03:03.627Z,19.48
2018-06-08T23:06:28.577Z,19.54
2018-06-08T23:09:53.163Z,19.51
2018-06-08T23:13:18.137Z,19.47
2018-06-08T23:16:43.046Z,19.44
2018-06-08T23:20:07.791Z,19.69
2018-06-08T23:23:33.565Z,19.37
2018-06-08T23:26:58.535Z,19.59
2018-06-08T23:30:23.533Z,19.61
2018-06-08T23:33:48.695Z,19.44
2018-06-08T23:37:13.904Z,19.51
2018-06-08T23:40:38.940Z,19.55
2018-06-08T23:44:03.909Z,19.50
2018-06-08T23:47:28.914Z,19.49
2018-06-08T23:50:53.893Z,19.30
2018-06-08T23:54:18.926Z,19.54
2018-06-08T23:57:43.911Z,19.50
